Time;durP1;ratioP1;P1;durP2;ratioP2;P2;SDS_P1;SDS_P2;PMS_P1;PMS_P2;Temp;Humidity;BMP_temperature;BMP_pressure;BME280_temperature;BME280_humidity;BME280_pressure;Samples;Min_cycle;Max_cycle;Signal;HPM_P1;HPM_P2
2022/02/23 00:00:29;;;;;;;5.13;2.47;;;10.80;36.10;;;;;;4993253;28;20027;-73
2022/02/23 00:02:55;;;;;;;7.40;2.65;;;10.70;36.00;;;;;;4993225;28;20034;-72
2022/02/23 00:05:21;;;;;;;5.65;2.20;;;10.70;36.10;;;;;;4992944;28;20086;-71
2022/02/23 00:07:46;;;;;;;5.50;2.38;;;10.60;36.90;;;;;;4993221;28;20026;-73
2022/02/23 00:10:12;;;;;;;5.15;2.40;;;10.60;36.50;;;;;;4993137;28;20084;-71
2022/02/23 00:12:38;;;;;;;4.68;2.33;;;10.60;36.90;;;;;;4975543;28;20105;-71
2022/02/23 00:15:04;;;;;;;5.65;2.50;;;10.60;36.80;;;;;;4993105;28;20559;-71
2022/02/23 00:17:30;;;;;;;5.05;2.42;;;10.60;36.50;;;;;;4993086;28;20070;-73
2022/02/23 00:19:56;;;;;;;4.22;2.38;;;10.60;36.80;;;;;;4992960;28;20057;-73
2022/02/23 00:22:23;;;;;;;4.93;2.58;;;10.50;36.60;;;;;;4993067;28;20022;-72
2022/02/23 00:24:49;;;;;;;4.68;2.08;;;10.50;37.20;;;;;;4993015;28;20403;-73
2022/02/23 00:27:17;;;;;;;5.07;2.53;;;10.50;37.20;;;;;;4993412;28;20026;-73
2022/02/23 00:29:43;;;;;;;7.50;2.75;;;10.50;37.10;;;;;;4993224;28;20535;-74
2022/02/23 00:32:10;;;;;;;5.80;2.30;;;10.50;37.50;;;;;;4993374;28;20102;-74
2022/02/23 00:34:35;;;;;;;5.05;2.42;;;10.40;37.00;;;;;;4993150;28;20061;-75
2022/02/23 00:37:01;;;;;;;5.82;2.60;;;10.40;37.50;;;;;;4993202;28;20053;-74
2022/02/23 00:39:27;;;;;;;7.35;2.55;;;10.40;38.40;;;;;;4976597;28;20038;-75
2022/02/23 00:41:53;;;;;;;6.78;2.50;;;10.40;37.90;;;;;;4997531;28;20027;-73
2022/02/23 00:44:19;;;;;;;5.10;2.50;;;10.40;37.50;;;;;;4996583;28;20045;-74
2022/02/23 00:46:45;;;;;;;5.38;2.40;;;10.50;37.80;;;;;;4996512;28;20084;-75
2022/02/23 00:49:11;;;;;;;5.78;2.33;;;10.50;37.50;;;;;;4978635;28;20553;-71
2022/02/23 00:51:37;;;;;;;5.63;2.38;;;10.40;37.40;;;;;;4996259;28;20044;-73
2022/02/23 00:54:03;;;;;;;4.80;2.38;;;10.40;37.50;;;;;;4997353;28;20022;-74
2022/02/23 00:56:28;;;;;;;8.45;2.20;;;10.40;37.70;;;;;;4997478;28;20054;-73
2022/02/23 00:58:54;;;;;;;4.60;2.38;;;10.40;37.80;;;;;;4996182;28;20407;-70
2022/02/23 01:01:20;;;;;;;4.45;2.30;;;10.40;37.70;;;;;;4996310;28;20034;-73
2022/02/23 01:03:46;;;;;;;7.63;2.60;;;10.30;37.70;;;;;;4996151;28;20030;-74
2022/02/23 01:06:12;;;;;;;6.72;2.65;;;10.20;37.60;;;;;;4996284;28;20030;-74
2022/02/23 01:08:37;;;;;;;7.93;2.63;;;10.20;38.10;;;;;;4996181;28;20022;-72
2022/02/23 01:11:04;;;;;;;5.03;2.30;;;10.30;38.30;;;;;;4996051;28;20030;-74
2022/02/23 01:13:29;;;;;;;6.28;2.42;;;10.30;38.20;;;;;;4995808;28;20113;-76
2022/02/23 01:15:55;;;;;;;5.00;2.20;;;10.30;38.10;;;;;;4978433;28;20109;-75
2022/02/23 01:18:23;;;;;;;6.10;2.35;;;10.30;38.10;;;;;;4995883;28;20081;-74
2022/02/23 01:20:48;;;;;;;4.90;2.10;;;10.30;37.90;;;;;;4995859;28;20026;-75
2022/02/23 01:23:14;;;;;;;5.15;2.10;;;10.20;37.80;;;;;;4995963;28;20037;-72
2022/02/23 01:25:41;;;;;;;5.35;2.20;;;10.20;37.90;;;;;;4996026;28;20121;-73
2022/02/23 01:28:08;;;;;;;4.00;2.05;;;10.10;37.90;;;;;;4995774;28;20022;-73
2022/02/23 01:30:34;;;;;;;4.05;2.13;;;10.10;37.90;;;;;;4995932;28;20145;-74
2022/02/23 01:33:00;;;;;;;6.55;2.40;;;10.10;37.90;;;;;;4996257;28;20147;-73
2022/02/23 01:35:27;;;;;;;6.75;2.20;;;10.10;37.70;;;;;;4996341;28;20496;-72
2022/02/23 01:37:53;;;;;;;5.13;2.60;;;10.10;38.20;;;;;;4996845;28;20045;-74
2022/02/23 01:40:21;;;;;;;4.55;2.17;;;10.10;38.20;;;;;;5002607;28;20033;-73
2022/02/23 01:42:47;;;;;;;4.35;2.00;;;10.10;38.20;;;;;;4988497;28;20022;-70
2022/02/23 01:45:13;;;;;;;4.32;2.20;;;10.10;38.10;;;;;;5003682;28;20523;-69
2022/02/23 01:47:39;;;;;;;5.90;2.10;;;10.10;38.10;;;;;;4995423;28;20054;-66
2022/02/23 01:50:06;;;;;;;5.03;2.20;;;10.10;38.30;;;;;;4995244;28;20042;-66
2022/02/23 01:52:32;;;;;;;4.65;2.10;;;10.00;38.20;;;;;;4995220;28;20527;-75
2022/02/23 01:54:58;;;;;;;5.28;2.33;;;10.00;38.30;;;;;;4995088;28;20101;-73
2022/02/23 01:57:23;;;;;;;5.95;2.08;;;10.00;38.40;;;;;;4995293;28;20495;-73
2022/02/23 01:59:50;;;;;;;5.95;2.45;;;10.00;38.30;;;;;;4995209;28;20050;-73
2022/02/23 02:02:16;;;;;;;8.70;1.98;;;10.00;38.20;;;;;;4995144;28;20065;-68
2022/02/23 02:04:42;;;;;;;4.20;1.98;;;10.00;38.20;;;;;;4995015;28;20476;-72
2022/02/23 02:07:08;;;;;;;5.38;1.88;;;10.00;38.10;;;;;;4994767;28;20029;-73
2022/02/23 02:09:34;;;;;;;4.10;1.80;;;10.00;38.20;;;;;;4994972;28;20026;-72
2022/02/23 02:12:01;;;;;;;6.15;1.90;;;10.00;38.10;;;;;;4995160;28;20026;-74
2022/02/23 02:14:26;;;;;;;4.15;1.88;;;10.00;38.30;;;;;;4994822;28;20031;-72
2022/02/23 02:16:52;;;;;;;4.28;2.10;;;10.00;38.00;;;;;;4994990;28;20046;-72
2022/02/23 02:19:18;;;;;;;3.58;1.60;;;10.10;38.30;;;;;;4994926;28;20468;-73
2022/02/23 02:22:09;;;;;;;3.33;1.63;;;10.10;38.40;;;;;;4994912;28;20033;-73
2022/02/23 02:24:37;;;;;;;5.20;2.00;;;10.10;38.20;;;;;;4994857;28;20038;-72
2022/02/23 02:27:06;;;;;;;5.07;2.22;;;10.10;38.40;;;;;;4994703;28;20029;-73
2022/02/23 02:29:32;;;;;;;4.13;1.60;;;10.00;38.20;;;;;;4994738;28;20161;-75
2022/02/23 02:31:59;;;;;;;3.83;1.65;;;10.00;38.30;;;;;;4994587;28;20027;-75
2022/02/23 02:34:25;;;;;;;4.28;1.80;;;9.90;39.30;;;;;;4994664;28;20491;-72
2022/02/23 02:36:51;;;;;;;5.95;1.80;;;9.90;39.20;;;;;;4994667;28;20025;-74
2022/02/23 02:39:18;;;;;;;4.70;1.70;;;9.90;39.30;;;;;;4994539;28;20034;-73
2022/02/23 02:41:44;;;;;;;3.33;1.70;;;9.90;39.10;;;;;;4994542;28;20085;-73
2022/02/23 02:44:10;;;;;;;4.20;1.92;;;9.80;39.10;;;;;;4994123;28;20056;-69
2022/02/23 02:46:35;;;;;;;3.47;1.60;;;9.80;39.70;;;;;;4994294;28;20395;-70
2022/02/23 02:49:01;;;;;;;4.03;1.90;;;9.80;39.30;;;;;;4994325;28;20093;-73
2022/02/23 02:51:28;;;;;;;4.10;1.85;;;9.80;39.30;;;;;;4994415;28;20114;-73
2022/02/23 02:53:53;;;;;;;4.68;1.83;;;9.80;39.40;;;;;;4994156;28;20062;-72
2022/02/23 02:56:19;;;;;;;3.55;1.77;;;9.80;39.30;;;;;;4994259;28;20054;-74
2022/02/23 02:58:52;;;;;;;6.07;2.00;;;9.80;39.40;;;;;;4994174;28;20040;-74
2022/02/23 03:01:28;;;;;;;4.80;1.70;;;9.80;39.40;;;;;;4994123;28;20106;-70
2022/02/23 03:03:54;;;;;;;3.53;1.70;;;9.80;39.40;;;;;;4993671;28;20034;-72
2022/02/23 03:06:20;;;;;;;3.60;1.52;;;9.80;39.60;;;;;;4994241;28;20117;-71
2022/02/23 03:08:48;;;;;;;3.92;1.95;;;9.80;39.70;;;;;;4994112;28;20027;-69
2022/02/23 03:11:14;;;;;;;3.58;1.50;;;9.70;39.50;;;;;;4993895;28;20026;-71
2022/02/23 03:13:41;;;;;;;3.10;1.50;;;9.70;39.70;;;;;;4993844;28;20383;-68
2022/02/23 03:16:08;;;;;;;3.70;1.63;;;9.60;39.70;;;;;;4993908;28;20407;-73
2022/02/23 03:18:34;;;;;;;7.38;3.38;;;9.70;39.80;;;;;;4993723;28;20030;-75
2022/02/23 03:21:00;;;;;;;4.50;2.20;;;9.60;39.70;;;;;;4993977;28;20026;-73
2022/02/23 03:23:26;;;;;;;4.30;1.80;;;9.60;40.00;;;;;;4993880;28;20376;-72
2022/02/23 03:25:52;;;;;;;5.28;1.85;;;9.50;40.00;;;;;;4995220;28;20037;-74
2022/02/23 03:28:18;;;;;;;4.00;1.88;;;9.50;40.10;;;;;;4996792;28;20018;-75
2022/02/23 03:30:44;;;;;;;5.97;2.22;;;9.50;40.00;;;;;;4976280;28;20034;-72
2022/02/23 03:33:10;;;;;;;5.43;1.88;;;9.50;40.30;;;;;;4993886;28;20026;-72
2022/02/23 03:35:37;;;;;;;4.68;1.80;;;9.50;40.30;;;;;;4993871;28;20026;-68
2022/02/23 03:38:03;;;;;;;4.28;1.73;;;9.50;40.30;;;;;;4993515;28;20030;-68
2022/02/23 03:40:30;;;;;;;4.55;1.63;;;9.40;40.20;;;;;;4975670;28;20066;-72
2022/02/23 03:42:56;;;;;;;3.55;1.77;;;9.40;40.20;;;;;;4993516;28;20078;-69
2022/02/23 03:45:21;;;;;;;3.15;1.80;;;9.40;40.40;;;;;;4993441;28;20452;-75
2022/02/23 03:47:48;;;;;;;2.65;1.30;;;9.40;40.60;;;;;;4993477;28;20109;-73
2022/02/23 03:50:14;;;;;;;3.10;1.70;;;9.50;40.60;;;;;;4993355;28;20464;-70
2022/02/23 03:52:41;;;;;;;4.60;1.60;;;9.50;40.50;;;;;;4993367;28;20081;-74
2022/02/23 03:55:08;;;;;;;5.07;1.70;;;9.50;40.30;;;;;;4993356;28;20390;-72
2022/02/23 03:57:34;;;;;;;3.88;1.52;;;9.50;40.30;;;;;;4993409;28;20061;-76
2022/02/23 04:00:00;;;;;;;3.20;1.67;;;9.50;40.30;;;;;;4975661;28;20034;-71
2022/02/23 04:02:26;;;;;;;4.32;1.90;;;9.40;40.10;;;;;;4993282;28;20023;-68
2022/02/23 04:04:51;;;;;;;3.65;1.70;;;9.40;40.10;;;;;;4993184;28;20118;-68
2022/02/23 04:07:17;;;;;;;2.72;1.50;;;9.40;40.50;;;;;;4993312;28;20037;-67
2022/02/23 04:09:47;;;;;;;5.03;1.50;;;9.40;40.50;;;;;;4993375;28;20023;-71
2022/02/23 04:12:16;;;;;;;4.40;1.60;;;9.40;40.50;;;;;;4993139;28;20076;-70
2022/02/23 04:14:43;;;;;;;4.50;1.90;;;9.40;40.40;;;;;;4994516;28;20097;-75
2022/02/23 04:17:08;;;;;;;4.90;1.85;;;9.30;40.30;;;;;;4979755;28;20068;-70
2022/02/23 04:19:34;;;;;;;5.32;1.60;;;9.30;40.40;;;;;;4997568;28;20022;-67
2022/02/23 04:22:00;;;;;;;4.43;1.95;;;9.30;40.40;;;;;;4995873;28;20450;-71
2022/02/23 04:24:26;;;;;;;6.78;1.95;;;9.20;40.60;;;;;;4997104;28;20035;-74
2022/02/23 04:26:52;;;;;;;3.97;1.80;;;9.20;40.60;;;;;;4996990;28;20023;-75
2022/02/23 04:29:17;;;;;;;4.38;1.90;;;9.20;40.50;;;;;;4997072;28;20490;-74
2022/02/23 04:31:43;;;;;;;2.30;1.30;;;9.20;40.80;;;;;;4997222;28;20054;-72
2022/02/23 04:34:10;;;;;;;5.60;2.00;;;9.10;40.60;;;;;;4997003;28;20113;-76
2022/02/23 04:36:36;;;;;;;9.60;2.20;;;9.00;40.60;;;;;;4996866;28;20018;-69
2022/02/23 04:39:05;;;;;;;6.50;1.90;;;9.00;40.50;;;;;;4996584;28;20384;-66
2022/02/23 04:41:31;;;;;;;5.40;1.90;;;9.00;41.40;;;;;;4996771;28;20089;-69
2022/02/23 04:43:57;;;;;;;6.38;2.65;;;9.00;40.80;;;;;;4996356;28;20054;-71
2022/02/23 04:46:23;;;;;;;5.00;1.98;;;9.00;40.60;;;;;;4996902;28;20058;-71
2022/02/23 04:48:50;;;;;;;3.97;1.98;;;9.00;40.90;;;;;;4996490;28;20026;-67
2022/02/23 04:51:16;;;;;;;4.38;1.90;;;9.00;40.90;;;;;;4996710;28;20061;-66
2022/02/23 04:53:42;;;;;;;4.13;1.83;;;9.00;40.70;;;;;;4996455;28;20026;-69
2022/02/23 04:56:09;;;;;;;7.00;3.13;;;9.00;40.60;;;;;;4996288;28;20101;-69
2022/02/23 04:58:35;;;;;;;4.68;1.92;;;9.10;40.80;;;;;;4996275;28;20023;-70
2022/02/23 05:01:00;;;;;;;4.70;2.08;;;9.10;40.70;;;;;;4996253;28;20084;-74
2022/02/23 05:03:27;;;;;;;5.05;2.40;;;9.00;40.90;;;;;;4996239;28;20026;-76
2022/02/23 05:05:52;;;;;;;4.57;2.03;;;9.00;41.00;;;;;;4978758;28;20049;-70
2022/02/23 05:08:19;;;;;;;9.00;2.55;;;9.10;41.20;;;;;;4996418;28;20026;-70
2022/02/23 05:10:45;;;;;;;6.63;2.20;;;9.10;40.70;;;;;;4995217;28;20030;-75
2022/02/23 05:13:11;;;;;;;8.15;2.10;;;9.00;40.80;;;;;;4978797;28;20029;-70
2022/02/23 05:15:37;;;;;;;4.88;2.58;;;9.00;40.90;;;;;;4978635;28;20476;-70
2022/02/23 05:18:06;;;;;;;5.00;2.03;;;9.00;41.30;;;;;;4996058;28;20038;-71
2022/02/23 05:20:32;;;;;;;7.25;2.55;;;8.90;40.90;;;;;;4996632;28;20025;-75
2022/02/23 05:22:57;;;;;;;9.63;2.10;;;8.90;41.20;;;;;;4997486;28;20022;-66
2022/02/23 05:25:24;;;;;;;4.60;2.25;;;9.00;41.40;;;;;;5002266;28;20061;-74
2022/02/23 05:27:51;;;;;;;5.03;2.22;;;9.00;41.70;;;;;;5005474;28;20029;-74
2022/02/23 05:30:17;;;;;;;7.53;2.30;;;9.00;41.30;;;;;;5001847;28;20085;-66
2022/02/23 05:32:43;;;;;;;3.90;1.90;;;9.10;41.30;;;;;;4978168;28;20365;-72
2022/02/23 05:35:09;;;;;;;7.20;2.60;;;9.00;41.40;;;;;;4995717;28;20053;-74
2022/02/23 05:37:36;;;;;;;6.75;2.85;;;9.10;41.40;;;;;;4995512;28;20030;-75
2022/02/23 05:40:03;;;;;;;7.07;2.60;;;9.00;41.00;;;;;;4995626;28;20022;-70
2022/02/23 05:42:29;;;;;;;9.30;2.50;;;9.00;41.30;;;;;;4995713;28;20026;-75
2022/02/23 05:44:54;;;;;;;5.18;2.53;;;9.00;41.80;;;;;;4995402;28;20141;-69
2022/02/23 05:47:20;;;;;;;6.15;2.20;;;9.10;41.90;;;;;;4978217;28;20034;-69
2022/02/23 05:49:46;;;;;;;6.70;2.42;;;9.10;41.70;;;;;;4995433;28;20027;-74
2022/02/23 05:52:16;;;;;;;12.38;2.45;;;9.10;41.90;;;;;;4995722;28;20034;-73
2022/02/23 05:54:43;;;;;;;8.40;2.33;;;9.00;41.30;;;;;;4996237;28;20061;-69
2022/02/23 05:57:08;;;;;;;8.25;2.83;;;9.00;41.60;;;;;;4995795;28;20427;-74
2022/02/23 05:59:34;;;;;;;10.13;3.42;;;9.00;42.00;;;;;;4995939;28;20510;-71
2022/02/23 06:02:01;;;;;;;5.75;2.72;;;9.00;41.90;;;;;;5000869;28;20089;-70
2022/02/23 06:04:27;;;;;;;7.35;3.20;;;9.10;41.90;;;;;;4997995;28;20069;-74
2022/02/23 06:06:53;;;;;;;7.22;2.33;;;9.10;41.80;;;;;;4995547;28;20030;-74
2022/02/23 06:09:18;;;;;;;7.32;2.58;;;9.10;41.80;;;;;;4995372;28;20467;-74
2022/02/23 06:11:45;;;;;;;10.48;2.95;;;9.10;41.90;;;;;;4994329;28;20486;-74
2022/02/23 06:14:12;;;;;;;7.03;2.40;;;9.10;41.70;;;;;;4995272;28;20498;-72
2022/02/23 06:16:38;;;;;;;4.18;2.05;;;9.00;43.40;;;;;;4995144;28;20054;-69
2022/02/23 06:19:04;;;;;;;6.35;2.30;;;8.90;41.80;;;;;;4995309;28;20443;-70
2022/02/23 06:21:29;;;;;;;6.88;2.53;;;8.90;42.00;;;;;;4995060;28;20371;-66
2022/02/23 06:23:55;;;;;;;9.25;3.30;;;8.80;42.00;;;;;;4977487;28;20439;-71
2022/02/23 06:26:24;;;;;;;8.88;2.90;;;8.90;42.40;;;;;;4994927;28;20057;-65
2022/02/23 06:28:50;;;;;;;8.38;2.78;;;9.00;42.10;;;;;;4994640;28;20034;-66
2022/02/23 06:31:19;;;;;;;9.70;3.08;;;8.90;42.40;;;;;;4994926;28;20032;-70
2022/02/23 06:33:47;;;;;;;12.80;3.10;;;9.00;42.60;;;;;;4977083;28;20065;-70
2022/02/23 06:36:13;;;;;;;12.05;3.15;;;9.00;42.70;;;;;;4994647;28;20131;-68
2022/02/23 06:38:42;;;;;;;7.95;3.10;;;9.10;42.30;;;;;;4993775;28;20445;-77
2022/02/23 06:41:10;;;;;;;6.65;2.80;;;9.10;42.30;;;;;;4994622;28;20464;-74
2022/02/23 06:43:37;;;;;;;8.00;3.72;;;9.10;42.10;;;;;;4994351;28;20129;-71
2022/02/23 06:46:03;;;;;;;9.68;4.28;;;9.00;42.30;;;;;;4994704;28;20040;-77
2022/02/23 06:48:29;;;;;;;10.55;3.90;;;9.00;42.80;;;;;;4994586;28;20023;-75
2022/02/23 06:50:55;;;;;;;9.15;3.80;;;9.00;43.40;;;;;;4994506;28;20030;-74
2022/02/23 06:53:21;;;;;;;16.85;4.47;;;8.90;43.90;;;;;;4994299;28;20356;-75
2022/02/23 06:55:47;;;;;;;12.80;4.93;;;8.80;44.10;;;;;;4994253;28;20101;-72
2022/02/23 06:58:14;;;;;;;13.68;4.65;;;8.80;44.60;;;;;;4994446;28;20069;-74
2022/02/23 07:00:40;;;;;;;14.57;4.85;;;8.90;44.40;;;;;;4994341;28;20492;-75
2022/02/23 07:03:06;;;;;;;7.50;3.83;;;8.90;44.40;;;;;;4994079;28;20500;-75
2022/02/23 07:05:32;;;;;;;10.88;4.40;;;8.90;44.10;;;;;;4994074;28;20062;-74
2022/02/23 07:08:02;;;;;;;14.80;4.50;;;9.00;44.20;;;;;;4993925;28;20499;-72
2022/02/23 07:10:30;;;;;;;8.15;3.70;;;9.10;44.10;;;;;;4977374;28;20042;-77
2022/02/23 07:12:58;;;;;;;10.27;3.55;;;9.20;45.30;;;;;;4996470;28;20048;-78
2022/02/23 07:15:29;;;;;;;9.38;3.83;;;9.30;43.20;;;;;;5000430;28;20030;-69
2022/02/23 07:17:55;;;;;;;14.45;3.72;;;9.50;44.80;;;;;;4995508;28;20026;-80
2022/02/23 07:20:24;;;;;;;12.75;4.10;;;9.70;43.10;;;;;;4999024;28;20026;-82
2022/02/23 07:22:52;;;;;;;14.55;4.45;;;9.90;43.80;;;;;;4994597;28;20429;-78
2022/02/23 07:25:21;;;;;;;8.73;3.60;;;10.10;43.20;;;;;;4993766;28;20505;-78
2022/02/23 07:27:48;;;;;;;9.05;3.40;;;10.30;42.10;;;;;;5000048;28;20022;-69
2022/02/23 07:30:16;;;;;;;10.13;3.90;;;10.30;40.70;;;;;;5003831;28;20116;-69
2022/02/23 07:32:43;;;;;;;56.88;6.43;;;10.40;41.20;;;;;;5003208;28;20014;-76
2022/02/23 07:35:14;;;;;;;13.45;3.40;;;10.50;41.00;;;;;;4994350;28;20070;-72
2022/02/23 07:37:45;;;;;;;9.43;3.30;;;10.70;40.70;;;;;;4994056;28;20031;-78
2022/02/23 07:40:14;;;;;;;15.07;2.90;;;10.90;41.40;;;;;;4993756;28;20080;-78
2022/02/23 07:42:40;;;;;;;11.43;3.00;;;11.00;40.70;;;;;;4994083;28;20357;-74
2022/02/23 07:45:07;;;;;;;10.20;2.75;;;11.10;40.70;;;;;;4993660;28;20061;-72
2022/02/23 07:47:34;;;;;;;9.07;3.22;;;11.30;40.60;;;;;;4993394;28;20038;-74
2022/02/23 07:50:01;;;;;;;12.40;4.28;;;11.40;40.20;;;;;;4975297;28;20121;-80
2022/02/23 07:52:29;;;;;;;5.53;2.78;;;11.40;39.90;;;;;;4994128;28;20030;-73
2022/02/23 07:54:55;;;;;;;9.48;3.53;;;11.40;39.60;;;;;;4993062;28;20029;-73
2022/02/23 07:57:21;;;;;;;19.45;4.00;;;11.50;40.20;;;;;;4992957;28;20042;-75
2022/02/23 07:59:48;;;;;;;20.02;4.07;;;11.50;40.00;;;;;;4994340;28;20491;-67
2022/02/23 08:02:17;;;;;;;10.00;3.97;;;11.70;40.40;;;;;;4994220;28;20153;-72
2022/02/23 08:04:44;;;;;;;9.43;3.00;;;11.70;39.80;;;;;;5008584;28;20041;-78
2022/02/23 08:07:10;;;;;;;9.32;3.83;;;11.70;39.50;;;;;;5013588;28;20025;-68
2022/02/23 08:09:35;;;;;;;31.92;5.10;;;11.70;39.50;;;;;;4979468;28;20115;-73
2022/02/23 08:12:03;;;;;;;10.05;3.30;;;11.70;40.00;;;;;;5014086;28;20046;-76
2022/02/23 08:14:30;;;;;;;9.00;3.30;;;11.80;39.80;;;;;;5015903;28;20074;-67
2022/02/23 08:19:41;;;;;;;14.05;3.72;;;11.80;39.30;;;;;;5012666;28;20180;-67
2022/02/23 08:22:12;;;;;;;12.25;3.17;;;11.70;39.50;;;;;;5012560;28;20057;-65
2022/02/23 08:24:58;;;;;;;8.60;3.15;;;11.70;39.40;;;;;;5012627;28;20045;-65
2022/02/23 08:27:27;;;;;;;11.43;3.00;;;11.60;38.80;;;;;;5013123;28;20018;-66
2022/02/23 08:29:53;;;;;;;18.05;2.88;;;11.60;39.20;;;;;;5012678;28;20375;-65
2022/02/23 08:32:23;;;;;;;10.25;3.30;;;11.50;38.80;;;;;;5013032;28;20503;-65
2022/02/23 08:34:52;;;;;;;11.65;3.75;;;11.50;38.90;;;;;;5012926;28;20101;-70
2022/02/23 08:37:18;;;;;;;8.27;3.90;;;11.60;39.30;;;;;;5013416;28;20440;-68
2022/02/23 08:39:46;;;;;;;9.50;3.50;;;11.60;39.70;;;;;;5013593;28;20022;-73
2022/02/23 08:42:13;;;;;;;10.50;2.75;;;11.60;39.50;;;;;;5017791;28;20034;-71
2022/02/23 08:44:39;;;;;;;8.18;2.65;;;11.60;39.20;;;;;;5013289;28;20510;-67
2022/02/23 08:47:06;;;;;;;13.55;3.15;;;11.50;39.00;;;;;;5012004;28;20032;-65
2022/02/23 08:49:32;;;;;;;8.95;3.10;;;11.50;39.30;;;;;;5012492;28;20171;-69
2022/02/23 08:51:58;;;;;;;7.22;2.78;;;11.60;39.70;;;;;;4994631;28;20064;-66
2022/02/23 08:54:24;;;;;;;7.57;2.85;;;11.60;39.30;;;;;;5012120;28;20029;-65
2022/02/23 08:56:50;;;;;;;5.93;3.10;;;11.60;39.10;;;;;;5011420;28;20033;-66
2022/02/23 08:59:16;;;;;;;7.13;3.08;;;11.60;39.20;;;;;;5011580;28;20475;-65
2022/02/23 09:01:42;;;;;;;7.82;3.10;;;11.50;38.90;;;;;;4997133;28;20029;-65
2022/02/23 09:04:08;;;;;;;8.48;3.30;;;11.60;39.00;;;;;;5015869;28;20030;-69
2022/02/23 09:06:36;;;;;;;7.43;3.17;;;11.60;39.00;;;;;;4998699;28;20360;-67
2022/02/23 09:09:04;;;;;;;10.93;3.00;;;11.70;39.00;;;;;;5020317;28;20037;-67
2022/02/23 09:11:31;;;;;;;9.35;3.45;;;11.70;39.10;;;;;;5015777;28;20029;-66
2022/02/23 09:13:57;;;;;;;7.38;2.90;;;11.80;39.10;;;;;;5015774;28;20120;-68
2022/02/23 09:16:23;;;;;;;8.32;3.20;;;11.90;39.50;;;;;;5015631;28;20435;-77
2022/02/23 09:18:50;;;;;;;12.00;3.40;;;11.90;39.40;;;;;;5015983;28;20036;-74
2022/02/23 09:21:18;;;;;;;8.82;3.10;;;12.00;39.60;;;;;;5016016;28;20188;-77
2022/02/23 09:23:45;;;;;;;7.40;3.15;;;12.10;38.90;;;;;;5015775;28;20033;-72
2022/02/23 09:26:11;;;;;;;10.90;3.50;;;12.20;39.30;;;;;;5015891;28;20038;-69
2022/02/23 09:28:39;;;;;;;7.90;2.53;;;12.30;39.40;;;;;;5015765;28;20365;-77
2022/02/23 09:31:07;;;;;;;5.15;2.75;;;12.40;39.40;;;;;;5015941;28;20100;-76
2022/02/23 09:33:33;;;;;;;6.88;3.25;;;12.40;39.20;;;;;;5015814;28;20084;-76
2022/02/23 09:36:02;;;;;;;13.85;2.67;;;12.50;39.10;;;;;;5015708;28;20146;-70
2022/02/23 09:38:29;;;;;;;9.98;2.92;;;12.50;38.90;;;;;;5016339;28;20096;-66
2022/02/23 09:40:58;;;;;;;8.43;4.13;;;12.60;39.20;;;;;;5015270;28;20025;-67
2022/02/23 09:43:23;;;;;;;8.52;3.10;;;12.70;39.40;;;;;;5015089;28;20121;-73
2022/02/23 09:45:53;;;;;;;6.70;2.78;;;12.80;39.30;;;;;;5015452;28;20121;-75
2022/02/23 09:48:28;;;;;;;6.53;2.85;;;12.80;38.90;;;;;;5015380;28;20084;-75
2022/02/23 09:50:54;;;;;;;6.93;2.70;;;12.90;37.80;;;;;;5015171;28;20482;-76
2022/02/23 09:53:21;;;;;;;11.20;3.22;;;13.10;39.60;;;;;;5014739;28;20040;-74
2022/02/23 09:55:47;;;;;;;7.43;2.80;;;13.10;39.10;;;;;;5014840;28;20037;-76
2022/02/23 09:58:13;;;;;;;8.00;2.70;;;13.20;38.80;;;;;;5015840;28;20029;-76
2022/02/23 10:00:39;;;;;;;8.63;3.08;;;13.30;38.70;;;;;;5015029;28;20136;-77
2022/02/23 10:03:06;;;;;;;8.93;3.80;;;13.30;38.70;;;;;;5015063;28;20367;-76
2022/02/23 10:05:39;;;;;;;8.52;2.55;;;13.50;37.70;;;;;;5014774;28;20045;-76
2022/02/23 10:08:06;;;;;;;11.48;2.88;;;13.60;38.50;;;;;;5014631;28;20021;-76
2022/02/23 10:10:35;;;;;;;13.15;2.92;;;13.60;38.50;;;;;;5015242;28;20057;-69
2022/02/23 10:13:03;;;;;;;7.22;2.55;;;13.70;37.80;;;;;;4996063;28;20479;-76
2022/02/23 10:15:31;;;;;;;8.63;2.92;;;13.90;38.80;;;;;;5014343;28;20026;-70
2022/02/23 10:18:06;;;;;;;10.63;2.90;;;14.00;37.10;;;;;;4997398;28;20041;-74
2022/02/23 10:20:36;;;;;;;5.43;2.70;;;14.10;38.70;;;;;;5014283;28;20014;-74
2022/02/23 10:23:05;;;;;;;6.85;2.70;;;14.20;38.70;;;;;;5014612;28;20097;-77
2022/02/23 10:25:35;;;;;;;7.88;2.50;;;14.30;38.70;;;;;;5014561;28;20435;-76
2022/02/23 10:28:12;;;;;;;12.50;2.80;;;14.40;38.30;;;;;;5014381;28;20029;-72
2022/02/23 10:30:59;;;;;;;5.72;2.75;;;14.50;37.00;;;;;;5014236;28;20025;-67
2022/02/23 10:33:30;;;;;;;5.40;2.88;;;14.60;36.80;;;;;;5014153;28;20468;-74
2022/02/23 10:36:02;;;;;;;6.80;2.42;;;14.70;36.50;;;;;;5014647;28;20375;-74
2022/02/23 10:38:37;;;;;;;6.75;2.47;;;14.80;37.70;;;;;;5014450;28;20033;-78
2022/02/23 10:41:06;;;;;;;7.45;3.50;;;14.90;36.30;;;;;;5014038;28;20060;-75
2022/02/23 10:43:35;;;;;;;6.93;2.40;;;15.00;37.50;;;;;;5014035;28;20052;-78
2022/02/23 10:46:01;;;;;;;5.05;2.30;;;15.10;37.50;;;;;;5014713;28;20116;-79
2022/02/23 10:48:42;;;;;;;7.25;2.65;;;15.20;37.10;;;;;;5013873;28;20045;-79
2022/02/23 10:51:29;;;;;;;5.80;2.17;;;15.30;37.20;;;;;;5013960;28;20053;-79
2022/02/23 10:54:15;;;;;;;5.32;2.42;;;15.40;37.30;;;;;;5012964;28;20029;-70
2022/02/23 10:56:42;;;;;;;5.32;2.60;;;15.50;37.20;;;;;;5013557;28;20438;-72
2022/02/23 10:59:19;;;;;;;7.18;2.47;;;15.60;37.30;;;;;;5013503;28;20034;-70
2022/02/23 11:01:49;;;;;;;10.02;2.30;;;15.70;35.70;;;;;;5013698;28;20399;-69
2022/02/23 11:04:18;;;;;;;11.85;2.58;;;15.80;35.90;;;;;;5013873;28;20022;-74
2022/02/23 11:06:44;;;;;;;4.90;1.90;;;16.00;36.90;;;;;;4996329;28;20121;-68
2022/02/23 11:09:11;;;;;;;6.18;1.98;;;16.10;36.90;;;;;;5013528;28;20101;-71
2022/02/23 11:11:37;;;;;;;8.07;2.80;;;16.20;36.70;;;;;;5013275;28;20054;-71
2022/02/23 11:14:07;;;;;;;8.73;2.75;;;16.30;36.60;;;;;;5013715;28;20126;-73
2022/02/23 11:16:33;;;;;;;6.50;2.20;;;16.40;37.10;;;;;;5013905;28;20022;-75
2022/02/23 11:19:02;;;;;;;5.63;2.55;;;16.50;36.50;;;;;;5013618;28;20100;-72
2022/02/23 11:21:32;;;;;;;4.03;1.92;;;16.60;36.30;;;;;;5013222;28;20436;-69
2022/02/23 11:24:03;;;;;;;5.22;2.17;;;16.60;36.60;;;;;;5012728;28;20025;-67
2022/02/23 11:26:34;;;;;;;5.80;2.38;;;16.70;36.70;;;;;;5013092;28;20100;-70
2022/02/23 11:29:46;;;;;;;12.25;2.75;;;16.90;35.50;;;;;;5012989;28;20534;-70
2022/02/23 11:32:11;;;;;;;6.72;2.53;;;17.00;35.30;;;;;;4914762;29;20050;-66
2022/02/23 11:34:39;;;;;;;8.45;2.55;;;17.10;36.10;;;;;;4992180;28;20444;-69
2022/02/23 11:37:11;;;;;;;8.10;2.00;;;17.20;35.80;;;;;;5013043;28;20490;-70
2022/02/23 11:39:38;;;;;;;2.65;1.52;;;17.30;35.50;;;;;;5013303;28;20064;-73
2022/02/23 11:42:07;;;;;;;5.80;2.03;;;17.40;35.50;;;;;;5012795;28;20394;-66
2022/02/23 11:44:40;;;;;;;5.22;1.92;;;17.40;35.40;;;;;;5012615;28;20490;-71
2022/02/23 11:47:09;;;;;;;5.23;1.93;;;17.50;35.50;;;;;;5012755;28;20434;-74
2022/02/23 11:49:36;;;;;;;5.15;2.15;;;17.60;35.10;;;;;;5012463;28;20398;-71
2022/02/23 11:52:11;;;;;;;10.07;2.30;;;17.70;35.30;;;;;;5012352;28;20015;-72
2022/02/23 11:55:15;;;;;;;3.53;1.67;;;17.80;35.00;;;;;;5012690;28;20427;-72
2022/02/23 11:57:49;;;;;;;4.03;1.40;;;17.90;34.40;;;;;;5008040;28;20073;-68
2022/02/23 12:00:30;;;;;;;4.20;2.10;;;18.10;34.00;;;;;;5013063;28;20026;-71
2022/02/23 12:03:04;;;;;;;4.22;1.88;;;18.20;33.90;;;;;;5013083;28;20026;-72
2022/02/23 12:05:32;;;;;;;5.85;1.77;;;18.30;32.90;;;;;;5012776;28;20531;-69
2022/02/23 12:07:59;;;;;;;5.05;2.40;;;18.40;33.00;;;;;;5012308;28;20076;-66
2022/02/23 12:10:30;;;;;;;4.90;2.00;;;18.50;32.80;;;;;;5012203;28;20050;-69
2022/02/23 12:12:57;;;;;;;6.00;1.77;;;18.60;32.60;;;;;;4995142;28;20365;-66
2022/02/23 12:15:34;;;;;;;4.38;1.80;;;18.70;32.30;;;;;;5012561;28;20052;-68
2022/02/23 12:18:16;;;;;;;4.40;1.80;;;18.80;32.80;;;;;;5012490;28;20076;-68
2022/02/23 12:20:46;;;;;;;4.78;2.03;;;18.90;32.00;;;;;;5012198;28;20360;-65
2022/02/23 12:23:20;;;;;;;5.43;1.90;;;19.00;32.30;;;;;;5012321;28;20467;-68
2022/02/23 12:25:56;;;;;;;4.22;1.83;;;19.10;32.60;;;;;;5012603;28;20439;-69
2022/02/23 12:28:33;;;;;;;5.07;1.85;;;19.10;31.90;;;;;;5012608;28;20456;-68
2022/02/23 12:31:12;;;;;;;8.35;2.30;;;19.20;31.80;;;;;;5012347;28;20101;-67
2022/02/23 12:33:39;;;;;;;4.13;2.10;;;19.30;32.10;;;;;;5012215;28;20061;-67
2022/02/23 12:36:10;;;;;;;8.25;2.25;;;19.40;31.70;;;;;;5014167;28;20032;-66
2022/02/23 12:38:47;;;;;;;7.28;2.30;;;19.40;31.70;;;;;;5016087;28;20018;-67
2022/02/23 12:41:20;;;;;;;3.72;1.58;;;19.50;30.70;;;;;;5016110;28;20026;-66
2022/02/23 12:43:56;;;;;;;3.05;1.35;;;19.60;29.90;;;;;;5015668;28;20095;-64
2022/02/23 12:46:22;;;;;;;5.43;1.60;;;19.70;30.50;;;;;;5015752;28;20081;-65
2022/02/23 12:48:48;;;;;;;3.10;1.60;;;19.70;30.00;;;;;;5015922;28;20025;-67
2022/02/23 12:51:14;;;;;;;4.70;1.70;;;19.80;29.30;;;;;;5015851;28;20029;-66
2022/02/23 12:53:44;;;;;;;2.95;1.60;;;19.80;29.60;;;;;;5015196;28;20383;-67